createdAt,value
2023-04-06T00:00:05.812Z,6.45
2023-04-06T00:02:32.991Z,6.33
2023-04-06T00:05:06.146Z,6.36
2023-04-06T00:07:35.067Z,6.29
2023-04-06T00:10:04.854Z,6.22
2023-04-06T00:12:33.443Z,6.22
2023-04-06T00:15:02.584Z,6.28
2023-04-06T00:17:29.657Z,6.35
2023-04-06T00:19:57.989Z,6.40
2023-04-06T00:22:25.701Z,6.49
2023-04-06T00:24:54.200Z,6.40
2023-04-06T00:27:31.322Z,6.29
2023-04-06T00:29:58.775Z,6.29
2023-04-06T00:32:26.176Z,6.40
2023-04-06T00:34:53.674Z,6.42
2023-04-06T00:37:21.835Z,6.44
2023-04-06T00:39:50.651Z,6.46
2023-04-06T00:42:18.659Z,6.51
2023-04-06T00:44:47.002Z,6.20
2023-04-06T00:47:14.282Z,6.32
2023-04-06T00:49:42.270Z,6.39
2023-04-06T00:52:11.170Z,6.13
2023-04-06T00:54:39.028Z,6.28
2023-04-06T00:57:07.546Z,5.76
2023-04-06T00:59:42.218Z,4.54
2023-04-06T01:02:11.494Z,3.95
2023-04-06T01:04:38.790Z,4.90
2023-04-06T01:07:07.733Z,5.52
2023-04-06T01:09:36.200Z,5.80
2023-04-06T01:12:04.666Z,5.71
2023-04-06T01:14:32.588Z,5.69
2023-04-06T01:17:01.657Z,5.79
2023-04-06T01:19:30.329Z,5.83
2023-04-06T01:21:59.952Z,5.68
2023-04-06T01:24:29.720Z,5.81
2023-04-06T01:26:57.634Z,5.96
2023-04-06T01:29:25.225Z,5.88
2023-04-06T01:31:55.031Z,5.51
2023-04-06T01:34:21.658Z,5.13
2023-04-06T01:36:49.609Z,5.10
2023-04-06T01:39:16.296Z,5.62
2023-04-06T01:41:45.343Z,5.51
2023-04-06T01:44:13.009Z,5.65
2023-04-06T01:46:39.690Z,5.70
2023-04-06T01:49:08.088Z,5.67
2023-04-06T01:51:44.934Z,5.42
2023-04-06T01:54:13.526Z,5.59
2023-04-06T01:56:41.336Z,5.37
2023-04-06T01:59:08.778Z,5.32
2023-04-06T02:01:37.461Z,5.48
2023-04-06T02:04:05.071Z,5.32
2023-04-06T02:06:32.289Z,5.18
2023-04-06T02:09:03.933Z,5.42
2023-04-06T02:11:31.593Z,5.34
2023-04-06T02:14:03.563Z,5.04
2023-04-06T02:16:31.802Z,5.18
2023-04-06T02:18:59.766Z,5.20
2023-04-06T02:21:28.256Z,5.25
2023-04-06T02:23:59.019Z,4.93
2023-04-06T02:26:26.095Z,4.78
2023-04-06T02:28:54.673Z,5.05
2023-04-06T02:31:24.288Z,4.94
2023-04-06T02:33:56.599Z,4.99
2023-04-06T02:36:27.248Z,5.15
2023-04-06T02:39:02.034Z,5.19
2023-04-06T02:41:29.355Z,5.21
2023-04-06T02:43:59.977Z,5.13
2023-04-06T02:46:26.944Z,5.24
2023-04-06T02:48:56.446Z,5.26
2023-04-06T02:51:27.054Z,5.36
2023-04-06T02:53:55.761Z,5.32
2023-04-06T02:56:24.040Z,5.30
2023-04-06T02:58:51.114Z,5.41
2023-04-06T03:01:19.710Z,5.46
2023-04-06T03:03:49.404Z,5.47
2023-04-06T03:06:18.047Z,5.23
2023-04-06T03:08:47.661Z,5.18
2023-04-06T03:11:14.212Z,5.27
2023-04-06T03:13:42.220Z,5.14
2023-04-06T03:16:10.522Z,5.30
2023-04-06T03:18:37.781Z,5.47
2023-04-06T03:21:06.263Z,5.39
2023-04-06T03:23:35.374Z,5.23
2023-04-06T03:26:04.365Z,5.27
2023-04-06T03:28:31.818Z,5.36
2023-04-06T03:30:59.265Z,5.44
2023-04-06T03:33:33.405Z,5.41
2023-04-06T03:36:04.304Z,5.29
2023-04-06T03:38:36.408Z,5.07
2023-04-06T03:41:15.013Z,4.75
2023-04-06T03:43:41.826Z,4.70
2023-04-06T03:46:09.087Z,4.38
2023-04-06T03:48:36.372Z,4.82
2023-04-06T03:51:06.173Z,4.92
2023-04-06T03:53:34.678Z,5.12
2023-04-06T03:56:03.389Z,4.96
2023-04-06T03:58:33.293Z,4.92
2023-04-06T04:01:00.472Z,5.03
2023-04-06T04:03:28.968Z,4.93
2023-04-06T04:05:58.726Z,4.77
2023-04-06T04:08:26.221Z,4.49
2023-04-06T04:10:53.623Z,4.85
2023-04-06T04:13:22.107Z,4.71
2023-04-06T04:15:50.163Z,4.93
2023-04-06T04:18:17.076Z,5.09
2023-04-06T04:20:43.522Z,5.03
2023-04-06T04:23:10.164Z,5.04
2023-04-06T04:25:36.662Z,4.99
2023-04-06T04:28:06.669Z,4.75
2023-04-06T04:30:34.622Z,4.90
2023-04-06T04:33:01.439Z,5.05
2023-04-06T04:35:29.368Z,4.83
2023-04-06T04:37:59.913Z,4.94
2023-04-06T04:40:26.439Z,4.82
2023-04-06T04:42:54.695Z,4.81
2023-04-06T04:45:21.042Z,4.87
2023-04-06T04:47:48.111Z,4.86
2023-04-06T04:50:14.791Z,4.83
2023-04-06T04:52:41.757Z,4.99
2023-04-06T04:55:08.845Z,4.92
2023-04-06T04:57:35.853Z,5.00
2023-04-06T05:00:03.201Z,5.10
2023-04-06T05:02:29.741Z,4.97
2023-04-06T05:04:56.859Z,4.95
2023-04-06T05:07:23.783Z,5.17
2023-04-06T05:09:50.582Z,5.18
2023-04-06T05:12:19.337Z,5.18
2023-04-06T05:14:46.232Z,5.16
2023-04-06T05:17:12.810Z,5.28
2023-04-06T05:19:39.354Z,5.36
2023-04-06T05:22:06.055Z,5.29
2023-04-06T05:24:34.143Z,5.44
2023-04-06T05:27:01.556Z,5.49
2023-04-06T05:29:29.786Z,5.53
2023-04-06T05:31:56.798Z,5.59
2023-04-06T05:34:23.673Z,5.92
2023-04-06T05:36:50.573Z,6.13
2023-04-06T05:39:18.251Z,6.28
2023-04-06T05:41:44.773Z,6.24
2023-04-06T05:44:11.368Z,6.22
2023-04-06T05:46:38.247Z,6.38
2023-04-06T05:49:07.502Z,6.25
2023-04-06T05:51:35.429Z,6.38
2023-04-06T05:54:03.344Z,6.55
2023-04-06T05:56:31.946Z,6.72
2023-04-06T05:58:59.262Z,6.60
2023-04-06T06:01:25.808Z,6.97
2023-04-06T06:03:52.343Z,6.62
2023-04-06T06:06:19.614Z,6.71
2023-04-06T06:08:46.771Z,7.12
2023-04-06T06:11:14.350Z,7.12
2023-04-06T06:13:41.123Z,7.49
2023-04-06T06:16:07.931Z,7.58
2023-04-06T06:18:35.036Z,7.84
2023-04-06T06:21:01.929Z,7.95
2023-04-06T06:23:29.895Z,8.21
2023-04-06T06:25:59.105Z,8.53
2023-04-06T06:28:26.427Z,8.43
2023-04-06T06:30:55.685Z,8.98
2023-04-06T06:33:23.889Z,9.00
2023-04-06T06:35:52.251Z,9.38
2023-04-06T06:38:20.907Z,9.61
2023-04-06T06:40:49.251Z,9.41
2023-04-06T06:43:16.175Z,9.58
2023-04-06T06:45:43.286Z,10.02
2023-04-06T06:48:09.933Z,10.27
2023-04-06T06:50:37.708Z,10.32
2023-04-06T06:53:05.006Z,10.52
2023-04-06T06:55:31.901Z,10.93
2023-04-06T06:57:58.700Z,10.88
2023-04-06T07:00:25.840Z,11.15
2023-04-06T07:02:52.762Z,11.56
2023-04-06T07:05:28.025Z,11.22
2023-04-06T07:07:56.155Z,11.64
2023-04-06T07:10:23.395Z,11.52
2023-04-06T07:12:50.281Z,11.59
2023-04-06T07:15:17.774Z,12.18
2023-04-06T07:17:46.550Z,12.26
2023-04-06T07:20:13.641Z,12.78
2023-04-06T07:22:41.757Z,12.62
2023-04-06T07:25:08.873Z,13.09
2023-04-06T07:27:35.530Z,13.19
2023-04-06T07:30:02.231Z,13.46
2023-04-06T07:32:29.010Z,13.36
2023-04-06T07:34:55.520Z,12.90
2023-04-06T07:37:22.853Z,13.60
2023-04-06T07:39:50.238Z,13.39
2023-04-06T07:42:16.772Z,13.64
2023-04-06T07:44:43.537Z,14.72
2023-04-06T07:47:11.110Z,14.33
2023-04-06T07:49:37.842Z,14.41
2023-04-06T07:52:04.871Z,14.96
2023-04-06T07:54:31.370Z,15.14
2023-04-06T07:56:57.911Z,14.07
2023-04-06T07:59:24.464Z,14.14
2023-04-06T08:01:51.065Z,14.81
2023-04-06T08:04:17.912Z,14.69
2023-04-06T08:06:44.813Z,14.35
2023-04-06T08:09:11.829Z,14.61
2023-04-06T08:11:38.381Z,15.00
2023-04-06T08:14:05.058Z,14.94
2023-04-06T08:16:33.442Z,15.18
2023-04-06T08:19:01.686Z,15.91
2023-04-06T08:21:28.428Z,14.59
2023-04-06T08:23:55.203Z,15.24
2023-04-06T08:26:22.008Z,15.28
2023-04-06T08:28:49.156Z,15.41
2023-04-06T08:31:15.936Z,15.71
2023-04-06T08:33:42.900Z,15.75
2023-04-06T08:36:13.535Z,15.95
2023-04-06T08:38:41.538Z,15.83
2023-04-06T08:41:12.362Z,16.12
2023-04-06T08:43:45.170Z,16.12
2023-04-06T08:46:12.448Z,16.07
2023-04-06T08:48:43.723Z,15.86
2023-04-06T08:51:11.126Z,15.81
2023-04-06T08:53:40.909Z,15.19
2023-04-06T08:56:08.591Z,16.07
2023-04-06T08:58:40.198Z,16.11
2023-04-06T09:01:09.329Z,15.61
2023-04-06T09:03:40.653Z,15.92
2023-04-06T09:06:08.077Z,15.75
2023-04-06T09:08:39.202Z,14.84
2023-04-06T09:11:05.807Z,15.62
2023-04-06T09:13:32.749Z,15.56
2023-04-06T09:16:00.297Z,15.77
2023-04-06T09:18:33.959Z,15.27
2023-04-06T09:21:02.060Z,16.07
2023-04-06T09:23:29.323Z,15.33
2023-04-06T09:26:25.367Z,15.52
2023-04-06T09:28:52.946Z,15.85
2023-04-06T09:31:26.448Z,16.84
2023-04-06T09:33:53.165Z,16.10
2023-04-06T09:36:20.558Z,16.74
2023-04-06T09:38:57.585Z,16.77
2023-04-06T09:41:32.312Z,17.18
2023-04-06T09:44:06.148Z,16.92
2023-04-06T09:46:50.733Z,16.87
2023-04-06T09:49:24.416Z,16.93
2023-04-06T09:51:55.137Z,16.70
2023-04-06T09:54:28.370Z,16.87
2023-04-06T09:57:14.652Z,16.48
2023-04-06T09:59:48.042Z,16.69
2023-04-06T10:02:19.664Z,16.41
2023-04-06T10:05:00.344Z,16.90
2023-04-06T10:07:30.371Z,17.46
2023-04-06T10:09:57.377Z,17.93
2023-04-06T10:12:23.828Z,17.98
2023-04-06T10:14:51.019Z,17.93
2023-04-06T10:17:17.925Z,17.45
2023-04-06T10:19:50.865Z,17.48
2023-04-06T10:22:25.392Z,17.46
2023-04-06T10:24:53.377Z,17.79
2023-04-06T10:27:29.366Z,17.67
2023-04-06T10:30:02.763Z,17.97
2023-04-06T10:32:36.935Z,17.85
2023-04-06T10:35:07.600Z,17.04
2023-04-06T10:37:47.646Z,17.72
2023-04-06T10:40:21.576Z,17.99
2023-04-06T10:42:48.146Z,18.10
2023-04-06T10:45:22.716Z,17.79
2023-04-06T10:47:51.362Z,17.56
2023-04-06T10:50:18.510Z,18.57
2023-04-06T10:52:47.410Z,18.33
2023-04-06T10:55:15.665Z,17.87
2023-04-06T10:57:42.567Z,17.79
2023-04-06T11:00:12.588Z,17.00
2023-04-06T11:02:40.144Z,17.62
2023-04-06T11:05:10.652Z,18.15
2023-04-06T11:07:37.618Z,18.66
2023-04-06T11:10:15.545Z,18.96
2023-04-06T11:12:44.965Z,18.44
2023-04-06T11:15:11.834Z,18.92
2023-04-06T11:17:38.647Z,19.59
2023-04-06T11:20:05.834Z,19.39
2023-04-06T11:22:34.399Z,19.84
2023-04-06T11:25:07.944Z,19.93
2023-04-06T11:27:35.208Z,19.33
2023-04-06T11:30:02.227Z,18.56
2023-04-06T11:32:29.280Z,19.29
2023-04-06T11:34:55.948Z,18.45
2023-04-06T11:37:22.508Z,17.43
2023-04-06T11:39:51.366Z,17.97
2023-04-06T11:42:24.735Z,19.33
2023-04-06T11:44:55.123Z,18.92
2023-04-06T11:47:29.401Z,19.02
2023-04-06T11:49:56.301Z,18.29
2023-04-06T11:52:26.990Z,18.63
2023-04-06T11:54:54.633Z,18.11
2023-04-06T11:57:22.631Z,18.43
2023-04-06T11:59:51.595Z,18.79
2023-04-06T12:02:18.875Z,19.54
2023-04-06T12:04:46.098Z,19.62
2023-04-06T12:07:13.219Z,18.91
2023-04-06T12:09:40.011Z,18.56
2023-04-06T12:12:07.062Z,18.61
2023-04-06T12:14:34.305Z,18.91
2023-04-06T12:17:03.698Z,19.18
2023-04-06T12:19:31.265Z,19.34
2023-04-06T12:21:59.452Z,19.18
2023-04-06T12:24:26.534Z,19.34
2023-04-06T12:26:59.568Z,20.23
2023-04-06T12:29:34.545Z,20.45
2023-04-06T12:32:02.976Z,20.11
2023-04-06T12:34:31.682Z,20.33
2023-04-06T12:37:05.171Z,20.28
2023-04-06T12:39:33.136Z,20.36
2023-04-06T12:42:00.048Z,19.37
2023-04-06T12:44:27.418Z,19.69
2023-04-06T12:46:54.645Z,19.87
2023-04-06T12:49:26.195Z,19.39
2023-04-06T12:51:53.910Z,19.49
2023-04-06T12:54:21.466Z,19.95
2023-04-06T12:56:47.991Z,19.66
2023-04-06T12:59:14.491Z,19.48
2023-04-06T13:01:41.444Z,19.69
2023-04-06T13:04:08.009Z,19.58
2023-04-06T13:06:34.524Z,20.18
2023-04-06T13:09:01.135Z,19.22
2023-04-06T13:11:28.770Z,19.64
2023-04-06T13:13:56.499Z,20.20
2023-04-06T13:16:23.672Z,20.20
2023-04-06T13:18:51.283Z,19.38
2023-04-06T13:21:18.239Z,20.01
2023-04-06T13:23:45.555Z,19.03
2023-04-06T13:26:14.694Z,18.70
2023-04-06T13:28:42.560Z,19.55
2023-04-06T13:31:10.732Z,19.16
2023-04-06T13:33:38.385Z,19.06
2023-04-06T13:36:05.395Z,19.90
2023-04-06T13:38:32.328Z,19.37
2023-04-06T13:40:59.048Z,19.87
2023-04-06T13:43:28.277Z,19.05
2023-04-06T13:45:59.217Z,19.44
2023-04-06T13:48:27.099Z,19.59
2023-04-06T13:50:53.610Z,19.41
2023-04-06T13:53:20.556Z,19.10
2023-04-06T13:55:53.490Z,19.42
2023-04-06T13:58:21.357Z,19.38
2023-04-06T14:00:48.479Z,19.46
2023-04-06T14:03:15.463Z,18.41
2023-04-06T14:05:44.582Z,19.19
2023-04-06T14:08:11.545Z,19.28
2023-04-06T14:10:43.705Z,18.41
2023-04-06T14:13:10.624Z,19.10
2023-04-06T14:15:40.097Z,19.30
2023-04-06T14:18:07.502Z,17.81
2023-04-06T14:20:34.199Z,18.78
2023-04-06T14:23:02.588Z,17.96
2023-04-06T14:25:33.189Z,17.34
2023-04-06T14:27:59.793Z,18.52
2023-04-06T14:30:26.744Z,18.61
2023-04-06T14:32:53.689Z,18.04
2023-04-06T14:35:21.698Z,17.85
2023-04-06T14:37:48.282Z,18.38
2023-04-06T14:40:15.752Z,19.23
2023-04-06T14:42:42.494Z,18.49
2023-04-06T14:45:09.555Z,18.41
2023-04-06T14:47:36.059Z,18.73
2023-04-06T14:50:05.838Z,19.06
2023-04-06T14:52:33.061Z,18.35
2023-04-06T14:54:59.562Z,17.04
2023-04-06T14:57:26.456Z,17.96
2023-04-06T14:59:54.438Z,18.44
2023-04-06T15:02:24.504Z,18.27
2023-04-06T15:04:52.087Z,18.06
2023-04-06T15:07:20.978Z,18.77
2023-04-06T15:09:47.389Z,19.10
2023-04-06T15:12:14.688Z,17.86
2023-04-06T15:14:41.521Z,19.00
2023-04-06T15:17:08.166Z,18.20
2023-04-06T15:19:36.096Z,18.87
2023-04-06T15:22:02.590Z,18.45
2023-04-06T15:24:29.127Z,18.54
2023-04-06T15:26:56.083Z,18.72
2023-04-06T15:29:22.886Z,18.98
2023-04-06T15:31:50.024Z,17.90
2023-04-06T15:34:16.761Z,18.02
2023-04-06T15:36:44.505Z,18.49
2023-04-06T15:39:11.116Z,17.51
2023-04-06T15:41:37.557Z,18.29
2023-04-06T15:44:04.654Z,18.04
2023-04-06T15:46:31.475Z,17.52
2023-04-06T15:48:58.075Z,17.65
2023-04-06T15:51:25.043Z,17.98
2023-04-06T15:53:52.072Z,18.29
2023-04-06T15:56:18.621Z,17.58
2023-04-06T15:58:45.845Z,18.06
2023-04-06T16:01:13.327Z,18.15
2023-04-06T16:03:40.824Z,17.59
2023-04-06T16:06:09.292Z,16.88
2023-04-06T16:08:36.895Z,18.17
2023-04-06T16:11:03.559Z,18.28
2023-04-06T16:13:30.216Z,17.78
2023-04-06T16:15:57.126Z,18.13
2023-04-06T16:18:23.652Z,17.39
2023-04-06T16:20:50.473Z,17.29
2023-04-06T16:23:17.282Z,17.29
2023-04-06T16:25:44.545Z,17.70
2023-04-06T16:28:11.016Z,17.81
2023-04-06T16:30:38.476Z,18.38
2023-04-06T16:33:05.139Z,17.30
2023-04-06T16:35:32.171Z,17.43
2023-04-06T16:37:58.572Z,16.93
2023-04-06T16:40:25.932Z,17.23
2023-04-06T16:42:52.544Z,17.90
2023-04-06T16:45:19.285Z,18.15
2023-04-06T16:47:45.691Z,17.37
2023-04-06T16:50:13.327Z,16.77
2023-04-06T16:52:41.204Z,17.62
2023-04-06T16:55:08.505Z,18.01
2023-04-06T16:57:35.428Z,18.02
2023-04-06T17:00:05.568Z,18.14
2023-04-06T17:02:36.281Z,17.14
2023-04-06T17:05:04.173Z,17.24
2023-04-06T17:07:32.964Z,17.26
2023-04-06T17:10:02.049Z,17.03
2023-04-06T17:12:30.132Z,16.96
2023-04-06T17:14:57.665Z,17.37
2023-04-06T17:17:24.255Z,16.64
2023-04-06T17:19:51.062Z,16.70
2023-04-06T17:22:20.935Z,16.80
2023-04-06T17:24:50.781Z,16.88
2023-04-06T17:27:17.526Z,16.64
2023-04-06T17:29:44.098Z,16.82
2023-04-06T17:32:11.648Z,16.37
2023-04-06T17:34:39.036Z,16.50
2023-04-06T17:37:05.842Z,15.97
2023-04-06T17:39:34.097Z,15.97
2023-04-06T17:42:04.337Z,15.87
2023-04-06T17:44:33.183Z,16.17
2023-04-06T17:47:01.028Z,15.89
2023-04-06T17:49:27.709Z,15.90
2023-04-06T17:51:54.140Z,15.95
2023-04-06T17:54:20.733Z,15.58
2023-04-06T17:56:54.131Z,15.10
2023-04-06T17:59:22.398Z,15.17
2023-04-06T18:01:55.479Z,15.12
2023-04-06T18:04:25.926Z,15.15
2023-04-06T18:06:58.658Z,14.44
2023-04-06T18:09:30.636Z,15.04
2023-04-06T18:11:57.715Z,15.02
2023-04-06T18:14:25.109Z,15.05
2023-04-06T18:16:55.355Z,14.70
2023-04-06T18:19:22.758Z,14.59
2023-04-06T18:21:49.590Z,14.55
2023-04-06T18:24:27.123Z,14.66
2023-04-06T18:27:00.869Z,14.49
2023-04-06T18:29:27.703Z,13.98
2023-04-06T18:31:55.454Z,13.80
2023-04-06T18:34:23.798Z,13.92
2023-04-06T18:36:51.118Z,13.80
2023-04-06T18:39:18.134Z,13.71
2023-04-06T18:41:44.733Z,13.77
2023-04-06T18:44:11.552Z,13.11
2023-04-06T18:46:39.388Z,13.35
2023-04-06T18:49:06.324Z,13.44
2023-04-06T18:51:33.559Z,13.68
2023-04-06T18:54:00.809Z,13.45
2023-04-06T18:56:27.646Z,13.22
2023-04-06T18:58:54.967Z,13.15
2023-04-06T19:01:21.828Z,13.10
2023-04-06T19:03:49.258Z,12.59
2023-04-06T19:06:17.799Z,13.27
2023-04-06T19:08:44.781Z,13.10
2023-04-06T19:11:12.122Z,12.93
2023-04-06T19:13:39.320Z,12.85
2023-04-06T19:16:09.923Z,13.01
2023-04-06T19:18:39.986Z,12.56
2023-04-06T19:21:14.710Z,12.86
2023-04-06T19:23:44.308Z,12.98
2023-04-06T19:26:15.106Z,13.51
2023-04-06T19:28:42.065Z,12.95
2023-04-06T19:31:10.520Z,12.57
2023-04-06T19:33:37.951Z,12.63
2023-04-06T19:36:10.585Z,12.69
2023-04-06T19:38:38.048Z,12.57
2023-04-06T19:41:06.687Z,12.92
2023-04-06T19:43:33.584Z,12.97
2023-04-06T19:46:00.563Z,12.96
2023-04-06T19:48:30.090Z,12.87
2023-04-06T19:50:57.293Z,13.10
2023-04-06T19:53:25.593Z,12.68
2023-04-06T19:55:52.651Z,12.60
2023-04-06T19:58:19.409Z,12.68
2023-04-06T20:00:52.813Z,12.77
2023-04-06T20:03:20.045Z,12.54
2023-04-06T20:05:48.195Z,11.27
2023-04-06T20:08:15.737Z,12.50
2023-04-06T20:10:42.496Z,12.41
2023-04-06T20:13:09.788Z,12.24
2023-04-06T20:15:37.057Z,11.78
2023-04-06T20:18:06.215Z,11.68
2023-04-06T20:20:33.219Z,11.89
2023-04-06T20:22:59.794Z,11.95
2023-04-06T20:25:26.982Z,11.91
2023-04-06T20:27:54.128Z,11.61
2023-04-06T20:30:21.338Z,11.67
2023-04-06T20:32:48.743Z,11.58
2023-04-06T20:35:17.317Z,11.35
2023-04-06T20:37:44.730Z,11.74
2023-04-06T20:40:12.785Z,12.11
2023-04-06T20:42:39.437Z,12.01
2023-04-06T20:45:06.776Z,11.98
2023-04-06T20:47:33.569Z,12.07
2023-04-06T20:50:00.060Z,11.88
2023-04-06T20:52:29.520Z,11.92
2023-04-06T20:54:56.383Z,11.75
2023-04-06T20:57:23.153Z,11.96
2023-04-06T20:59:50.161Z,11.84
2023-04-06T21:02:17.480Z,10.66
2023-04-06T21:04:44.377Z,11.00
2023-04-06T21:07:11.153Z,10.83
2023-04-06T21:09:39.036Z,11.16
2023-04-06T21:12:06.905Z,11.60
2023-04-06T21:14:34.838Z,11.93
2023-04-06T21:17:02.559Z,12.23
2023-04-06T21:19:29.873Z,12.35
2023-04-06T21:21:58.747Z,11.82
2023-04-06T21:24:26.052Z,12.09
2023-04-06T21:27:00.963Z,12.16
2023-04-06T21:29:28.074Z,11.78
2023-04-06T21:32:06.823Z,11.23
2023-04-06T21:34:33.901Z,10.65
2023-04-06T21:37:07.846Z,10.67
2023-04-06T21:39:36.966Z,10.76
2023-04-06T21:42:04.303Z,11.74
2023-04-06T21:44:32.032Z,12.15
2023-04-06T21:47:00.424Z,11.86
2023-04-06T21:49:28.076Z,12.06
2023-04-06T21:51:54.974Z,11.60
2023-04-06T21:54:21.672Z,11.74
2023-04-06T21:56:48.619Z,11.71
2023-04-06T21:59:15.987Z,11.72
2023-04-06T22:01:42.600Z,11.03
2023-04-06T22:04:11.300Z,11.63
2023-04-06T22:06:38.157Z,11.55
2023-04-06T22:09:05.890Z,11.15
2023-04-06T22:11:33.901Z,11.12
2023-04-06T22:14:00.700Z,11.42
2023-04-06T22:16:28.786Z,11.45
2023-04-06T22:18:55.914Z,11.43
2023-04-06T22:21:23.439Z,11.36
2023-04-06T22:23:50.420Z,11.43
2023-04-06T22:26:16.885Z,11.78
2023-04-06T22:28:43.225Z,11.37
2023-04-06T22:31:10.064Z,10.85
2023-04-06T22:33:37.098Z,10.88
2023-04-06T22:36:03.844Z,11.18
2023-04-06T22:38:30.477Z,11.03
2023-04-06T22:41:00.007Z,11.28
2023-04-06T22:43:26.444Z,11.17
2023-04-06T22:45:52.942Z,10.79
2023-04-06T22:48:19.600Z,11.35
2023-04-06T22:50:47.066Z,11.22
2023-04-06T22:53:13.832Z,11.14
2023-04-06T22:55:41.427Z,10.70
2023-04-06T22:58:08.131Z,10.97
2023-04-06T23:00:34.933Z,10.85
2023-04-06T23:03:01.764Z,11.07
2023-04-06T23:05:28.953Z,10.91
2023-04-06T23:07:56.214Z,10.20
2023-04-06T23:10:23.038Z,10.68
2023-04-06T23:12:49.904Z,10.84
2023-04-06T23:15:16.536Z,11.21
2023-04-06T23:17:43.608Z,10.98
2023-04-06T23:20:12.032Z,9.79
2023-04-06T23:22:39.077Z,9.64
2023-04-06T23:25:07.559Z,9.52
2023-04-06T23:27:34.629Z,9.82
2023-04-06T23:30:02.820Z,9.43
2023-04-06T23:32:32.010Z,9.23
2023-04-06T23:34:59.850Z,9.38
2023-04-06T23:37:29.913Z,9.26
2023-04-06T23:39:56.832Z,9.49
2023-04-06T23:42:28.529Z,9.45
2023-04-06T23:44:55.804Z,9.58
2023-04-06T23:47:22.708Z,9.58
2023-04-06T23:49:49.479Z,8.97
2023-04-06T23:52:16.791Z,9.44
2023-04-06T23:54:43.491Z,9.30
2023-04-06T23:57:10.090Z,9.42
2023-04-06T23:59:37.747Z,9.34
